Time;durP1;ratioP1;P1;durP2;ratioP2;P2;SDS_P1;SDS_P2;PMS_P1;PMS_P2;Temp;Humidity;BMP_temperature;BMP_pressure;BME280_temperature;BME280_humidity;BME280_pressure;Samples;Min_cycle;Max_cycle;Signal;HPM_P1;HPM_P2
2021/12/19 00:02:28;;;;;;;18.67;13.63;;;9.10;71.40;;;-142.21;100.00;112049.66;5006276;28;20455;-79
2021/12/19 00:10:26;;;;;;;15.23;12.13;;;9.20;71.60;;;-142.21;100.00;112049.66;5011280;28;20874;-80
2021/12/19 00:12:54;;;;;;;18.47;13.07;;;9.20;71.50;;;-142.21;100.00;112049.66;5003949;28;20482;-79
2021/12/19 00:15:23;;;;;;;16.80;13.30;;;9.20;71.20;;;-142.21;100.00;112049.66;5011041;28;20523;-79
2021/12/19 00:17:50;;;;;;;18.37;13.57;;;9.20;71.30;;;-142.21;100.00;112049.66;5012005;28;20536;-79
2021/12/19 00:20:18;;;;;;;18.50;13.47;;;9.20;71.10;;;-142.21;100.00;112049.66;5011916;28;20504;-78
2021/12/19 00:22:45;;;;;;;17.60;13.40;;;9.20;71.10;;;-142.21;100.00;112049.66;5010350;28;20508;-78
2021/12/19 00:25:12;;;;;;;15.93;12.40;;;9.30;71.10;;;-142.21;100.00;112049.66;5008468;28;20771;-80
2021/12/19 00:27:40;;;;;;;15.00;11.70;;;9.30;71.10;;;-142.21;100.00;112049.66;5009665;28;20504;-79
2021/12/19 00:30:08;;;;;;;18.10;13.70;;;9.30;71.60;;;-142.21;100.00;112049.66;5012344;28;20519;-78
2021/12/19 00:32:40;;;;;;;15.27;12.13;;;9.20;71.30;;;-142.21;100.00;112049.66;5011439;28;20464;-80
2021/12/19 00:35:08;;;;;;;17.20;12.70;;;9.20;71.40;;;-142.21;100.00;112049.66;5012592;28;20505;-80
2021/12/19 00:37:35;;;;;;;16.60;12.53;;;9.20;71.30;;;-142.21;100.00;112049.66;4994317;28;20885;-79
2021/12/19 00:40:06;;;;;;;15.97;12.50;;;9.20;71.10;;;-142.21;100.00;112049.66;4976926;28;20455;-78
2021/12/19 00:42:37;;;;;;;16.10;12.00;;;9.30;71.10;;;-142.21;100.00;112049.66;4992510;28;21002;-80
2021/12/19 00:45:16;;;;;;;15.90;11.80;;;9.20;70.90;;;-142.21;100.00;112049.66;5012188;28;20481;-79
2021/12/19 00:47:46;;;;;;;17.53;12.50;;;9.20;71.20;;;-142.21;100.00;112049.66;5012054;28;20474;-79
2021/12/19 00:50:15;;;;;;;15.57;11.57;;;9.30;71.00;;;-142.21;100.00;112049.66;5011620;28;20806;-79
2021/12/19 00:52:46;;;;;;;14.67;11.87;;;9.30;71.20;;;-142.21;100.00;112049.66;5013011;28;20548;-80
2021/12/19 00:55:13;;;;;;;18.33;12.67;;;9.30;71.10;;;-142.21;100.00;112049.66;5012257;28;20580;-79
2021/12/19 00:57:41;;;;;;;15.63;12.23;;;9.20;71.00;;;-142.21;100.00;112049.66;5011155;28;20537;-80
2021/12/19 01:00:13;;;;;;;15.57;12.10;;;9.30;71.10;;;-142.21;100.00;112049.66;5011596;28;20528;-79
2021/12/19 01:02:41;;;;;;;16.17;11.88;;;9.20;71.20;;;-142.21;100.00;112049.66;5011461;28;20516;-80
2021/12/19 01:05:11;;;;;;;15.07;11.47;;;9.20;71.30;;;-142.21;100.00;112049.66;5006980;28;20227;-80
2021/12/19 01:07:39;;;;;;;11.90;9.80;;;9.20;71.10;;;-142.21;100.00;112049.66;5011369;28;20950;-80
2021/12/19 01:10:09;;;;;;;11.73;9.57;;;9.20;70.90;;;-142.21;100.00;112049.66;5011909;28;20478;-80
2021/12/19 01:12:38;;;;;;;11.70;9.70;;;9.20;70.90;;;-142.21;100.00;112049.66;5010083;28;20534;-79
2021/12/19 01:15:11;;;;;;;10.10;8.70;;;9.20;70.70;;;-142.21;100.00;112049.66;4995534;28;20682;-78
2021/12/19 01:17:39;;;;;;;11.60;9.43;;;9.20;70.60;;;-142.21;100.00;112049.66;5007868;28;20522;-78
2021/12/19 01:20:18;;;;;;;12.23;8.90;;;9.00;70.40;;;-142.21;100.00;112049.66;5015673;28;20549;-79
2021/12/19 01:22:47;;;;;;;11.50;9.73;;;9.10;70.70;;;-142.21;100.00;112049.66;5015587;28;20498;-78
2021/12/19 01:25:15;;;;;;;11.70;9.30;;;9.10;70.40;;;-142.21;100.00;112049.66;5016137;28;20510;-78
2021/12/19 01:27:42;;;;;;;10.93;8.77;;;9.10;70.40;;;-142.21;100.00;112049.66;5010950;28;20537;-78
2021/12/19 01:30:12;;;;;;;10.63;9.17;;;9.10;70.20;;;-142.21;100.00;112049.66;5009960;28;20724;-78
2021/12/19 01:32:43;;;;;;;11.70;9.10;;;9.10;70.20;;;-142.21;100.00;112049.66;5015785;28;20521;-79
2021/12/19 01:35:16;;;;;;;11.00;9.07;;;9.00;70.80;;;-142.21;100.00;112049.66;5014754;28;20532;-79
2021/12/19 01:37:46;;;;;;;12.43;9.40;;;8.90;70.90;;;-142.21;100.00;112049.66;5014867;28;20852;-78
2021/12/19 01:40:17;;;;;;;11.00;8.80;;;8.80;71.20;;;-142.21;100.00;112049.66;5014395;28;20448;-78
2021/12/19 01:42:47;;;;;;;10.77;8.90;;;8.80;71.10;;;-142.21;100.00;112049.66;5015198;28;20884;-78
2021/12/19 01:45:24;;;;;;;10.63;8.83;;;8.80;71.10;;;-142.21;100.00;112049.66;5015098;28;20470;-78
2021/12/19 01:47:52;;;;;;;11.67;8.97;;;8.90;71.20;;;-142.21;100.00;112049.66;5006416;28;20978;-78
2021/12/19 01:50:21;;;;;;;11.03;9.37;;;8.90;71.00;;;-142.21;100.00;112049.66;5014333;28;20454;-79
2021/12/19 01:52:50;;;;;;;10.23;8.70;;;8.80;70.90;;;-142.21;100.00;112049.66;5009790;28;20462;-78
2021/12/19 01:55:18;;;;;;;10.97;8.87;;;8.70;71.10;;;-142.21;100.00;112049.66;5009803;28;20581;-79
2021/12/19 01:57:46;;;;;;;10.57;8.33;;;8.70;71.40;;;-142.21;100.00;112049.66;5015526;28;20505;-79
2021/12/19 02:00:27;;;;;;;9.33;7.90;;;8.70;71.30;;;-142.21;100.00;112049.66;5014621;28;20857;-78
2021/12/19 02:02:55;;;;;;;11.17;8.60;;;8.60;71.80;;;-142.21;100.00;112049.66;5014096;28;20438;-79
2021/12/19 02:05:26;;;;;;;9.53;7.73;;;8.60;71.50;;;-142.21;100.00;112049.66;5014111;28;20486;-79
2021/12/19 02:07:56;;;;;;;11.23;8.93;;;8.60;71.50;;;-142.21;100.00;112049.66;5007177;28;20442;-77
2021/12/19 02:10:27;;;;;;;11.67;9.33;;;8.60;71.60;;;-142.21;100.00;112049.66;5014159;28;20446;-79
2021/12/19 02:12:57;;;;;;;13.47;10.23;;;8.70;72.00;;;-142.21;100.00;112049.66;5014831;28;20492;-79
2021/12/19 02:15:28;;;;;;;11.10;8.93;;;8.70;71.70;;;-142.21;100.00;112049.66;5014248;28;20532;-79
2021/12/19 02:18:00;;;;;;;10.33;9.00;;;8.70;71.40;;;-142.21;100.00;112049.66;5012849;28;20528;-79
2021/12/19 02:20:33;;;;;;;11.37;9.40;;;8.50;71.70;;;-142.21;100.00;112049.66;5013899;28;20506;-79
2021/12/19 02:23:01;;;;;;;11.73;9.63;;;8.50;72.00;;;-142.21;100.00;112049.66;5014697;28;20475;-79
2021/12/19 02:25:29;;;;;;;9.33;7.80;;;8.50;71.90;;;-142.21;100.00;112049.66;5013327;28;20512;-79
2021/12/19 02:27:56;;;;;;;10.40;8.03;;;8.50;72.00;;;-142.21;100.00;112049.66;5006906;28;20969;-77
2021/12/19 02:30:23;;;;;;;13.03;9.40;;;8.60;71.90;;;-142.21;100.00;112049.66;5014305;28;20505;-78
2021/12/19 02:32:51;;;;;;;11.30;9.40;;;8.50;71.80;;;-142.21;100.00;112049.66;5014519;28;20532;-80
2021/12/19 02:35:22;;;;;;;13.57;9.83;;;8.60;72.00;;;-142.21;100.00;112049.66;5014242;28;20548;-79
2021/12/19 02:49:06;;;;;;;10.83;8.43;;;8.50;72.00;;;-142.21;100.00;112049.66;5007352;28;20442;-79
2021/12/19 02:51:35;;;;;;;12.67;9.23;;;8.50;71.90;;;-142.21;100.00;112049.66;5013629;28;20462;-78
2021/12/19 02:54:05;;;;;;;10.50;8.77;;;8.50;71.60;;;-142.21;100.00;112049.66;5005619;28;20454;-79
2021/12/19 02:56:32;;;;;;;10.87;8.50;;;8.40;71.90;;;-142.21;100.00;112049.66;4996947;28;20585;-79
2021/12/19 02:59:00;;;;;;;11.43;8.43;;;8.50;71.70;;;-142.21;100.00;112049.66;5013421;28;20672;-78
2021/12/19 03:01:28;;;;;;;11.63;8.73;;;8.50;71.80;;;-142.21;100.00;112049.66;5000017;28;20872;-78
2021/12/19 03:03:55;;;;;;;12.67;9.87;;;8.50;71.90;;;-142.21;100.00;112049.66;5013114;28;20485;-77
2021/12/19 03:06:23;;;;;;;10.53;8.13;;;8.60;71.90;;;-142.21;100.00;112049.66;5010609;28;20529;-77
2021/12/19 03:08:51;;;;;;;14.03;9.90;;;8.60;71.60;;;-142.21;100.00;112049.66;5013119;28;20958;-78
2021/12/19 03:19:35;;;;;;;13.07;8.70;;;8.50;71.90;;;-142.21;100.00;112049.66;5009629;28;20463;-79
2021/12/19 03:22:03;;;;;;;11.97;8.40;;;8.30;72.30;;;-142.21;100.00;112049.66;5000762;28;20490;-78
2021/12/19 03:24:31;;;;;;;13.33;9.33;;;8.30;73.00;;;-142.21;100.00;112049.66;5013259;28;20494;-78
2021/12/19 03:26:59;;;;;;;10.67;8.23;;;8.20;72.90;;;-142.21;100.00;112049.66;5013407;28;20481;-78
2021/12/19 03:29:26;;;;;;;11.43;8.73;;;8.20;73.20;;;-142.21;100.00;112049.66;5012179;28;20537;-78
2021/12/19 03:31:53;;;;;;;11.10;7.90;;;8.20;73.20;;;-142.21;100.00;112049.66;5013348;28;20472;-78
2021/12/19 03:34:21;;;;;;;10.17;7.83;;;8.20;73.20;;;-142.21;100.00;112049.66;5008759;28;20461;-79
2021/12/19 03:36:48;;;;;;;11.43;8.17;;;8.20;73.20;;;-142.21;100.00;112049.66;5012375;28;20545;-77
2021/12/19 03:39:26;;;;;;;10.45;8.40;;;8.20;73.10;;;-142.21;100.00;112049.66;5012914;28;20454;-78
2021/12/19 03:41:56;;;;;;;9.73;8.43;;;8.20;73.30;;;-142.21;100.00;112049.66;5012432;28;20242;-78
2021/12/19 03:44:25;;;;;;;11.10;8.57;;;8.20;73.60;;;-142.21;100.00;112049.66;5011978;28;20457;-79
2021/12/19 03:46:52;;;;;;;10.70;8.07;;;8.20;73.30;;;-142.21;100.00;112049.66;5013268;28;20537;-79
2021/12/19 03:49:20;;;;;;;9.85;7.90;;;8.20;73.30;;;-142.21;100.00;112049.66;5012720;28;20537;-78
2021/12/19 03:51:48;;;;;;;9.57;7.88;;;8.20;73.10;;;-142.21;100.00;112049.66;5012640;28;20642;-79
2021/12/19 03:54:16;;;;;;;8.97;7.20;;;8.30;73.20;;;-142.21;100.00;112049.66;5012473;28;20207;-77
2021/12/19 03:56:43;;;;;;;11.57;8.17;;;8.30;72.90;;;-142.21;100.00;112049.66;5012187;28;21151;-78
2021/12/19 03:59:11;;;;;;;8.33;7.10;;;8.40;72.90;;;-142.21;100.00;112049.66;5012707;28;20847;-79
2021/12/19 04:01:42;;;;;;;9.73;7.83;;;8.50;72.10;;;-142.21;100.00;112049.66;5012565;28;20534;-79
2021/12/19 04:04:09;;;;;;;9.83;7.40;;;8.40;71.70;;;-142.21;100.00;112049.66;5012837;28;20470;-79
2021/12/19 04:06:37;;;;;;;8.53;7.20;;;8.40;71.80;;;-142.21;100.00;112049.66;4997066;28;20501;-79
2021/12/19 04:09:04;;;;;;;9.27;7.67;;;8.20;72.10;;;-142.21;100.00;112049.66;5008688;28;20817;-77
2021/12/19 04:11:31;;;;;;;12.20;7.50;;;8.20;72.50;;;-142.21;100.00;112049.66;5012327;28;20446;-79
2021/12/19 04:13:59;;;;;;;9.10;6.93;;;8.20;72.70;;;-142.21;100.00;112049.66;5011555;28;20541;-79
2021/12/19 04:16:26;;;;;;;8.20;6.80;;;8.10;72.60;;;-142.21;100.00;112049.66;5012209;28;20576;-79
2021/12/19 04:18:54;;;;;;;8.70;6.97;;;8.10;72.90;;;-142.21;100.00;112049.66;5011655;28;20478;-78
2021/12/19 04:21:21;;;;;;;9.07;7.03;;;8.10;73.20;;;-142.21;100.00;112049.66;5011897;28;20484;-78
2021/12/19 04:23:49;;;;;;;7.77;6.60;;;8.10;73.10;;;-142.21;100.00;112049.66;5000703;28;20511;-78
2021/12/19 04:26:16;;;;;;;8.63;7.53;;;8.10;73.00;;;-142.21;100.00;112049.66;5011981;28;20458;-77
2021/12/19 04:28:43;;;;;;;8.17;6.93;;;8.10;73.00;;;-142.21;100.00;112049.66;5011424;28;20442;-77
2021/12/19 04:31:10;;;;;;;9.23;6.85;;;8.10;73.20;;;-142.21;100.00;112049.66;5010891;28;20450;-77
2021/12/19 04:33:40;;;;;;;8.87;6.50;;;8.10;73.30;;;-142.21;100.00;112049.66;5012188;28;20234;-77
2021/12/19 04:36:10;;;;;;;8.70;6.10;;;8.20;73.20;;;-142.21;100.00;112049.66;5011176;28;21037;-78
2021/12/19 04:55:44;;;;;;;7.17;5.80;;;8.20;72.70;;;-142.21;100.00;112049.66;4998599;28;20237;-79
2021/12/19 05:01:08;;;;;;;7.00;5.30;;;8.20;72.60;;;-142.21;100.00;112049.66;4965667;28;20446;-79
2021/12/19 05:03:44;;;;;;;6.50;5.30;;;8.20;72.40;;;-142.21;100.00;112049.66;4995735;28;20438;-79
2021/12/19 05:06:20;;;;;;;6.87;5.20;;;8.20;72.70;;;-142.21;100.00;112049.66;5001663;28;20982;-77
2021/12/19 05:14:21;;;;;;;7.93;6.03;;;8.30;72.40;;;-142.21;100.00;112049.66;5005797;28;20437;-79
2021/12/19 05:16:52;;;;;;;6.73;5.73;;;8.30;72.50;;;-142.21;100.00;112049.66;5012003;28;20474;-79
2021/12/19 05:19:25;;;;;;;6.53;5.47;;;8.30;72.60;;;-142.21;100.00;112049.66;5011505;28;20443;-78
2021/12/19 05:21:56;;;;;;;7.47;6.17;;;8.30;72.60;;;-142.21;100.00;112049.66;5009579;28;20485;-78
2021/12/19 05:24:48;;;;;;;7.30;5.97;;;8.30;72.60;;;-142.21;100.00;112049.66;5011134;28;20515;-79
2021/12/19 05:27:15;;;;;;;7.23;5.70;;;8.40;72.60;;;-142.21;100.00;112049.66;5012131;28;20435;-78
2021/12/19 05:29:43;;;;;;;6.63;5.80;;;8.40;72.10;;;-142.21;100.00;112049.66;5011161;28;20820;-79
2021/12/19 05:32:16;;;;;;;7.03;5.93;;;8.30;72.20;;;-142.21;100.00;112049.66;5012007;28;20481;-80
2021/12/19 05:34:45;;;;;;;7.40;5.70;;;8.30;72.40;;;-142.21;100.00;112049.66;5010717;28;20501;-79
2021/12/19 05:45:27;;;;;;;7.10;6.00;;;8.10;72.80;;;-142.21;100.00;112049.66;4993226;28;20430;-79
2021/12/19 05:47:54;;;;;;;7.10;5.80;;;8.00;73.50;;;-142.21;100.00;112049.66;5010340;28;20488;-79
2021/12/19 05:50:24;;;;;;;7.40;6.40;;;8.00;73.70;;;-142.21;100.00;112049.66;5011436;28;20548;-79
2021/12/19 05:52:52;;;;;;;7.10;6.00;;;7.90;74.20;;;-142.21;100.00;112049.66;5008922;28;21013;-78
2021/12/19 05:55:21;;;;;;;8.10;6.50;;;7.90;74.00;;;-142.21;100.00;112049.66;5011139;28;20813;-79
2021/12/19 05:57:48;;;;;;;9.47;6.10;;;7.90;74.30;;;-142.21;100.00;112049.66;4986421;28;20829;-77
2021/12/19 06:00:19;;;;;;;7.50;6.13;;;7.90;74.60;;;-142.21;100.00;112049.66;5012621;28;20548;-79
2021/12/19 06:02:46;;;;;;;8.87;7.07;;;8.00;74.90;;;-142.21;100.00;112049.66;5013920;28;20504;-79
2021/12/19 06:05:14;;;;;;;8.13;6.30;;;8.10;74.50;;;-142.21;100.00;112049.66;5014203;28;20496;-77
2021/12/19 06:07:42;;;;;;;8.60;6.53;;;8.10;74.40;;;-142.21;100.00;112049.66;5015087;28;20533;-78
2021/12/19 06:10:11;;;;;;;6.77;5.93;;;8.10;74.40;;;-142.21;100.00;112049.66;5013941;28;20867;-79
2021/12/19 06:12:40;;;;;;;8.93;6.77;;;8.20;74.40;;;-142.21;100.00;112049.66;5013772;28;20984;-78
2021/12/19 06:15:10;;;;;;;9.60;7.30;;;8.20;74.20;;;-142.21;100.00;112049.66;5014248;28;20479;-79
2021/12/19 06:17:37;;;;;;;8.98;7.18;;;8.20;74.20;;;-142.21;100.00;112049.66;5013800;28;20958;-79
2021/12/19 06:20:06;;;;;;;9.07;7.23;;;8.20;74.00;;;-142.21;100.00;112049.66;5012613;28;20223;-79
2021/12/19 06:22:34;;;;;;;9.40;7.17;;;8.30;74.30;;;-142.21;100.00;112049.66;5014178;28;20468;-79
2021/12/19 06:25:01;;;;;;;8.23;6.90;;;8.30;73.90;;;-142.21;100.00;112049.66;5014481;28;20486;-78
2021/12/19 06:27:28;;;;;;;10.00;6.93;;;8.30;74.10;;;-142.21;100.00;112049.66;5014347;28;20478;-78
2021/12/19 06:29:57;;;;;;;8.27;6.83;;;8.30;74.20;;;-142.21;100.00;112049.66;5014583;28;20879;-77
2021/12/19 06:32:24;;;;;;;9.70;7.23;;;8.30;74.10;;;-142.21;100.00;112049.66;5013135;28;20529;-79
2021/12/19 06:34:52;;;;;;;7.97;6.77;;;8.30;74.40;;;-142.21;100.00;112049.66;5008834;28;21043;-77
2021/12/19 06:37:19;;;;;;;7.27;6.40;;;8.30;74.20;;;-142.21;100.00;112049.66;5013053;28;20611;-78
2021/12/19 06:39:46;;;;;;;7.80;6.63;;;8.40;73.90;;;-142.21;100.00;112049.66;5013825;28;20486;-78
2021/12/19 06:42:14;;;;;;;8.20;6.67;;;8.40;74.00;;;-142.21;100.00;112049.66;5013745;28;20486;-79
2021/12/19 06:44:41;;;;;;;9.60;6.67;;;8.30;74.00;;;-142.21;100.00;112049.66;5013930;28;20489;-79
2021/12/19 06:47:09;;;;;;;8.27;7.07;;;8.30;74.00;;;-142.21;100.00;112049.66;5014516;28;20464;-79
2021/12/19 06:49:37;;;;;;;9.67;7.73;;;8.30;74.20;;;-142.21;100.00;112049.66;5007785;28;20461;-79
2021/12/19 06:52:05;;;;;;;10.90;8.67;;;8.30;75.00;;;-142.21;100.00;112049.66;4996123;28;20458;-79
2021/12/19 06:54:32;;;;;;;12.93;10.00;;;8.20;74.40;;;-142.21;100.00;112049.66;5013883;28;20446;-79
2021/12/19 06:57:01;;;;;;;12.20;9.83;;;8.20;74.40;;;-142.21;100.00;112049.66;5013220;28;20584;-79
2021/12/19 06:59:29;;;;;;;12.67;10.77;;;8.20;74.80;;;-142.21;100.00;112049.66;5013696;28;20477;-79
2021/12/19 07:01:56;;;;;;;15.90;11.80;;;8.20;74.90;;;-142.21;100.00;112049.66;5012194;28;20534;-79
2021/12/19 07:04:24;;;;;;;15.23;12.77;;;8.20;74.80;;;-142.21;100.00;112049.66;5013470;28;20306;-79
2021/12/19 07:06:52;;;;;;;17.67;13.77;;;8.20;74.60;;;-142.21;100.00;112049.66;5013259;28;20477;-79
2021/12/19 07:09:19;;;;;;;19.97;14.13;;;8.20;74.80;;;-142.21;100.00;112049.66;5013604;28;20537;-78
2021/12/19 07:11:46;;;;;;;16.57;12.97;;;8.00;74.70;;;-142.21;100.00;112049.66;5012549;28;20462;-78
2021/12/19 07:14:13;;;;;;;16.83;13.67;;;8.00;75.50;;;-142.21;100.00;112049.66;5013177;28;20458;-78
2021/12/19 07:16:41;;;;;;;16.80;14.30;;;8.00;75.60;;;-142.21;100.00;112049.66;5009375;28;20906;-79
2021/12/19 07:19:08;;;;;;;16.83;12.93;;;8.00;75.80;;;-142.21;100.00;112049.66;5012595;28;20239;-79
2021/12/19 07:21:37;;;;;;;18.95;13.93;;;8.10;76.30;;;-142.21;100.00;112049.66;5013764;28;20572;-79
2021/12/19 07:24:05;;;;;;;21.17;14.40;;;8.10;75.50;;;-142.21;100.00;112049.66;5013419;28;20290;-77
2021/12/19 07:26:34;;;;;;;21.03;15.17;;;8.20;75.80;;;-142.21;100.00;112049.66;5012932;28;20537;-79
2021/12/19 07:29:01;;;;;;;18.97;14.07;;;8.20;75.30;;;-142.21;100.00;112049.66;5011622;28;20946;-79
2021/12/19 07:31:30;;;;;;;17.33;14.17;;;8.30;75.10;;;-142.21;100.00;112049.66;5013372;28;20543;-79
2021/12/19 07:33:58;;;;;;;24.20;16.47;;;8.30;75.20;;;-142.21;100.00;112049.66;5013434;28;20446;-78
2021/12/19 07:36:29;;;;;;;20.80;15.43;;;8.30;75.30;;;-142.21;100.00;112049.66;5012867;28;20584;-79
2021/12/19 07:39:04;;;;;;;22.10;15.70;;;8.20;75.20;;;-142.21;100.00;112049.66;5012851;28;20833;-78
2021/12/19 07:41:32;;;;;;;20.03;14.80;;;8.20;75.60;;;-142.21;100.00;112049.66;5012450;28;20484;-78
2021/12/19 07:43:59;;;;;;;22.90;15.67;;;8.10;75.70;;;-142.21;100.00;112049.66;5012157;28;20446;-78
2021/12/19 07:46:26;;;;;;;23.23;15.80;;;8.10;75.80;;;-142.21;100.00;112049.66;5011963;28;20450;-77
2021/12/19 07:48:53;;;;;;;21.33;15.73;;;8.00;76.00;;;-142.21;100.00;112049.66;5013210;28;20270;-79
2021/12/19 07:51:21;;;;;;;20.27;15.53;;;8.00;76.30;;;-142.21;100.00;112049.66;5004356;28;20502;-79
2021/12/19 07:53:48;;;;;;;24.80;16.95;;;8.00;76.60;;;-142.21;100.00;112049.66;5003268;28;20504;-79
2021/12/19 07:56:17;;;;;;;25.70;17.57;;;8.00;76.40;;;-142.21;100.00;112049.66;5012871;28;20255;-79
2021/12/19 07:58:44;;;;;;;21.27;15.50;;;7.90;76.60;;;-142.21;100.00;112049.66;5011623;28;20474;-79
2021/12/19 08:01:11;;;;;;;23.27;16.13;;;8.00;76.70;;;-142.21;100.00;112049.66;4999900;28;20805;-79
2021/12/19 08:03:38;;;;;;;20.20;15.23;;;8.10;77.00;;;-142.21;100.00;112049.66;5012395;28;20545;-79
2021/12/19 08:06:06;;;;;;;22.40;16.00;;;8.10;76.30;;;-142.21;100.00;112049.66;5011018;28;20234;-76
2021/12/19 08:08:35;;;;;;;22.73;14.90;;;8.10;76.40;;;-142.21;100.00;112049.66;5012440;28;20206;-77
2021/12/19 08:13:49;;;;;;;22.53;15.90;;;8.10;76.60;;;-142.21;100.00;112049.66;5011875;28;20445;-79
2021/12/19 08:16:16;;;;;;;21.77;16.17;;;8.10;76.60;;;-142.21;100.00;112049.66;5003825;28;20483;-79
2021/12/19 08:18:43;;;;;;;19.97;14.67;;;8.10;76.60;;;-142.21;100.00;112049.66;5000848;28;20196;-79
2021/12/19 08:21:10;;;;;;;18.97;14.40;;;8.10;76.40;;;-142.21;100.00;112049.66;5011612;28;20506;-79
2021/12/19 08:23:37;;;;;;;21.73;16.33;;;8.00;76.30;;;-142.21;100.00;112049.66;5012548;28;20454;-79
2021/12/19 08:26:05;;;;;;;24.53;16.87;;;7.90;76.50;;;-142.21;100.00;112049.66;5011606;28;21028;-79
2021/12/19 08:28:32;;;;;;;21.13;15.13;;;7.90;76.70;;;-142.21;100.00;112049.66;5011954;28;20489;-79
2021/12/19 08:31:01;;;;;;;19.20;15.60;;;8.00;76.90;;;-142.21;100.00;112049.66;5010632;28;20537;-78
2021/12/19 08:33:28;;;;;;;18.60;14.43;;;8.10;76.70;;;-142.21;100.00;112049.66;5012359;28;20446;-78
2021/12/19 08:35:55;;;;;;;22.02;16.75;;;8.10;76.40;;;-142.21;100.00;112049.66;5011685;28;20473;-78
2021/12/19 08:38:22;;;;;;;21.27;14.77;;;8.10;76.40;;;-142.21;100.00;112049.66;5011612;28;20605;-77
2021/12/19 08:40:51;;;;;;;18.47;13.97;;;8.20;76.30;;;-142.21;100.00;112049.66;5009558;28;20542;-79
2021/12/19 08:43:20;;;;;;;17.53;12.47;;;8.30;76.20;;;-142.21;100.00;112049.66;5011260;28;20890;-79
2021/12/19 08:45:48;;;;;;;15.23;12.43;;;8.30;76.20;;;-142.21;100.00;112049.66;5012353;28;20484;-79
2021/12/19 08:48:18;;;;;;;16.17;12.57;;;8.30;76.20;;;-142.21;100.00;112049.66;4996641;28;20452;-77
2021/12/19 08:50:46;;;;;;;17.33;12.40;;;8.30;76.30;;;-142.21;100.00;112049.66;5008496;28;20581;-79
2021/12/19 08:53:13;;;;;;;18.17;13.63;;;8.40;76.30;;;-142.21;100.00;112049.66;5011689;28;20482;-79
2021/12/19 08:55:41;;;;;;;16.10;12.67;;;8.40;75.80;;;-142.21;100.00;112049.66;5011869;28;20481;-78
2021/12/19 08:58:09;;;;;;;14.53;11.30;;;8.30;75.80;;;-142.21;100.00;112049.66;5011218;28;21028;-78
2021/12/19 09:00:36;;;;;;;14.47;11.27;;;8.20;75.90;;;-142.21;100.00;112049.66;5011542;28;20539;-78
2021/12/19 09:03:05;;;;;;;27.80;11.63;;;8.20;76.50;;;-142.21;100.00;112049.66;5011231;28;20545;-80
2021/12/19 09:05:40;;;;;;;16.67;13.07;;;8.20;76.50;;;-142.21;100.00;112049.66;5005475;28;20455;-79
2021/12/19 09:08:07;;;;;;;15.83;11.33;;;8.20;76.80;;;-142.21;100.00;112049.66;5002136;28;20460;-79
2021/12/19 09:10:38;;;;;;;14.30;10.23;;;8.10;76.40;;;-142.21;100.00;112049.66;5010740;28;20481;-79
2021/12/19 09:13:05;;;;;;;13.93;10.87;;;8.10;76.70;;;-142.21;100.00;112049.66;4994736;28;20453;-79
2021/12/19 09:15:33;;;;;;;12.83;10.07;;;8.10;76.40;;;-142.21;100.00;112049.66;5005821;28;20435;-79
2021/12/19 09:18:03;;;;;;;11.00;9.00;;;8.10;76.80;;;-142.21;100.00;112049.66;5010210;28;20842;-78
2021/12/19 09:20:33;;;;;;;12.83;9.57;;;8.10;76.40;;;-142.21;100.00;112049.66;5012150;28;20463;-75
2021/12/19 09:23:02;;;;;;;11.90;9.43;;;8.00;76.30;;;-142.21;100.00;112049.66;5011582;28;20533;-78
2021/12/19 09:25:30;;;;;;;12.83;9.80;;;7.90;76.70;;;-142.21;100.00;112049.66;5011912;28;20450;-79
2021/12/19 09:27:57;;;;;;;11.90;9.43;;;8.00;76.90;;;-142.21;100.00;112049.66;5000722;28;20513;-76
2021/12/19 09:30:25;;;;;;;12.37;9.97;;;8.00;76.70;;;-142.21;100.00;112049.66;5004234;28;20453;-79
2021/12/19 09:32:52;;;;;;;14.33;10.50;;;8.00;76.70;;;-142.21;100.00;112049.66;4996115;28;20451;-79
2021/12/19 09:35:19;;;;;;;9.77;8.43;;;8.10;76.70;;;-142.21;100.00;112049.66;5013000;28;21041;-79
2021/12/19 09:37:47;;;;;;;11.30;9.27;;;8.10;76.40;;;-142.21;100.00;112049.66;5007108;28;20500;-79
2021/12/19 09:40:23;;;;;;;11.50;9.30;;;8.20;76.40;;;-142.21;100.00;112049.66;5015363;28;20508;-75
2021/12/19 09:43:01;;;;;;;12.67;9.50;;;8.20;76.60;;;-142.21;100.00;112049.66;5015129;28;20488;-79
2021/12/19 09:45:30;;;;;;;11.83;9.50;;;8.10;76.10;;;-142.21;100.00;112049.66;4996616;28;20527;-78
2021/12/19 09:47:58;;;;;;;10.63;9.47;;;8.10;76.40;;;-142.21;100.00;112049.66;5005008;28;20446;-79
2021/12/19 09:50:26;;;;;;;12.07;9.50;;;8.20;76.40;;;-142.21;100.00;112049.66;5015904;28;20549;-80
2021/12/19 09:52:53;;;;;;;10.07;8.80;;;8.20;76.30;;;-142.21;100.00;112049.66;5014228;28;20860;-80
2021/12/19 09:55:22;;;;;;;12.40;8.57;;;8.20;76.30;;;-142.21;100.00;112049.66;5008407;28;20558;-79
2021/12/19 09:57:52;;;;;;;9.47;8.33;;;8.10;76.10;;;-142.21;100.00;112049.66;4998188;28;20919;-79
2021/12/19 10:00:21;;;;;;;9.50;8.50;;;8.20;76.40;;;-142.21;100.00;112049.66;4978902;28;20809;-79
2021/12/19 10:02:49;;;;;;;10.57;8.63;;;8.20;76.80;;;-142.21;100.00;112049.66;5000291;28;20458;-79
2021/12/19 10:05:20;;;;;;;11.17;9.20;;;8.20;75.90;;;-142.21;100.00;112049.66;4999754;28;20530;-79
2021/12/19 10:07:51;;;;;;;10.30;8.10;;;8.10;76.30;;;-142.21;100.00;112049.66;4996627;28;20446;-78
2021/12/19 10:10:29;;;;;;;9.97;8.10;;;8.10;76.40;;;-142.21;100.00;112049.66;4995410;28;20427;-78
2021/12/19 10:13:00;;;;;;;10.20;8.67;;;8.20;76.00;;;-142.21;100.00;112049.66;4995858;28;20442;-78
2021/12/19 10:15:34;;;;;;;10.37;8.07;;;8.20;76.10;;;-142.21;100.00;112049.66;4995483;28;20498;-79
2021/12/19 10:18:06;;;;;;;9.17;7.80;;;8.20;76.00;;;-142.21;100.00;112049.66;5007990;28;20830;-78
2021/12/19 10:20:51;;;;;;;10.03;7.90;;;8.20;75.80;;;-142.21;100.00;112049.66;5014668;28;20477;-79
2021/12/19 10:23:22;;;;;;;10.53;8.37;;;8.20;75.60;;;-142.21;100.00;112049.66;4962809;28;20474;-80
2021/12/19 10:26:00;;;;;;;10.47;9.10;;;8.20;75.70;;;-142.21;100.00;112049.66;5006083;28;20471;-79
2021/12/19 10:28:28;;;;;;;10.03;8.27;;;8.20;76.10;;;-142.21;100.00;112049.66;5001317;28;20526;-78
2021/12/19 10:30:58;;;;;;;9.10;8.10;;;8.20;75.70;;;-142.21;100.00;112049.66;5004738;28;20455;-80
2021/12/19 10:33:29;;;;;;;12.57;10.27;;;8.20;76.10;;;-142.21;100.00;112049.66;5013929;28;20513;-80
2021/12/19 10:35:59;;;;;;;12.40;9.63;;;8.20;76.00;;;-142.21;100.00;112049.66;5014124;28;20438;-79
2021/12/19 10:38:30;;;;;;;9.10;7.70;;;8.30;75.60;;;-142.21;100.00;112049.66;5008723;28;20518;-79
2021/12/19 10:41:02;;;;;;;11.40;8.93;;;8.10;75.40;;;-142.21;100.00;112049.66;5008865;28;20526;-79
2021/12/19 10:43:33;;;;;;;10.43;8.53;;;8.20;75.70;;;-142.21;100.00;112049.66;5001129;28;20482;-79
2021/12/19 10:46:04;;;;;;;8.90;7.97;;;8.10;75.60;;;-142.21;100.00;112049.66;5010020;28;20462;-80
2021/12/19 10:48:34;;;;;;;10.98;9.25;;;8.00;75.70;;;-142.21;100.00;112049.66;5000761;28;20525;-77
2021/12/19 10:51:05;;;;;;;9.20;8.30;;;8.00;76.00;;;-142.21;100.00;112049.66;4992581;28;20239;-78
2021/12/19 10:53:40;;;;;;;9.77;8.73;;;8.00;76.10;;;-142.21;100.00;112049.66;5011577;28;20438;-78
2021/12/19 10:56:14;;;;;;;11.23;8.97;;;8.00;76.20;;;-142.21;100.00;112049.66;5012458;28;20438;-78
2021/12/19 10:58:45;;;;;;;12.07;9.27;;;7.90;76.10;;;-142.21;100.00;112049.66;5002794;28;20474;-78
2021/12/19 11:01:26;;;;;;;10.60;8.60;;;8.00;76.30;;;-142.21;100.00;112049.66;5011819;28;20457;-80
2021/12/19 11:04:03;;;;;;;10.03;8.83;;;8.00;76.60;;;-142.21;100.00;112049.66;5011625;28;20493;-80